« Back
NWS Peachtree City, Ga » Text Product » AHN Terminal Aerodrome Forecast


Printer-friendly Version
Current Version              Previous Versions:   1  2  3  4  5  6  7  8  9  

Terminal Aerodrome Forecast

542
FTAK31 PAJN 252300
TAFAHN
TAF
PAHN 252339Z 2600/2624 VRB06KT P6SM SCT090
     FM260600 33010KT P6SM BKN070
     FM261400 31012KT P6SM BKN070
     FM262000 31008KT P6SM VCSH BKN040 OVC070
      AMD LTD TO CLD VIS AND WIND=

USA.gov is the U.S. government's official web portal to all federal, state and local government web resources and services.